PBB17 EDVQ-EDOY
Flight info
| Callsign | PBB17 |
|---|---|
| Flight time | N/A |
| Altitude | 4500 |
| Route | VFR STATE POLICE |
| Aircraft | EC35/L-S/G |
Departure
| Time | 2026-04-24 16:43 |
|---|---|
| Airport | Wilsche Glider Field (EDVQ) |
Arrival
| Time | N/A |
|---|---|
| Airport | Ahrensfelde Heliport (EDOY) |
| Time | Latitude | Longitude | Altitude | Speed | Heading |
|---|---|---|---|---|---|
| 2026-04-24 16:42 | 52.51139 | 10.45994 | 644 ft | 83 kts | 168° |
| 2026-04-24 16:43 | 52.50563 | 10.46283 | 718 ft | 92 kts | 167° |
| 2026-04-24 16:43 | 52.49918 | 10.46603 | 771 ft | 101 kts | 166° |
| 2026-04-24 16:43 | 52.49222 | 10.46960 | 818 ft | 107 kts | 167° |
| 2026-04-24 16:43 | 52.48497 | 10.47340 | 856 ft | 111 kts | 166° |
| 2026-04-24 16:44 | 52.47739 | 10.47721 | 864 ft | 116 kts | 166° |
| 2026-04-24 16:44 | 52.46959 | 10.48119 | 859 ft | 119 kts | 166° |
| 2026-04-24 16:44 | 52.46163 | 10.48546 | 843 ft | 121 kts | 166° |
| 2026-04-24 16:44 | 52.45385 | 10.48979 | 829 ft | 118 kts | 166° |
| 2026-04-24 16:45 | 52.44630 | 10.49456 | 810 ft | 115 kts | 155° |
| 2026-04-24 16:45 | 52.44154 | 10.49872 | 810 ft | 115 kts | 155° |
| 2026-04-24 16:45 | 52.43166 | 10.50469 | 818 ft | 115 kts | 164° |
| 2026-04-24 16:45 | 52.42406 | 10.50880 | 816 ft | 115 kts | 165° |
| 2026-04-24 16:46 | 52.41643 | 10.51283 | 812 ft | 117 kts | 165° |
| 2026-04-24 16:46 | 52.40862 | 10.51702 | 802 ft | 118 kts | 165° |
| 2026-04-24 16:46 | 52.40084 | 10.52144 | 791 ft | 119 kts | 165° |
| 2026-04-24 16:46 | 52.39555 | 10.52450 | 784 ft | 119 kts | 164° |
| 2026-04-24 16:47 | 52.38771 | 10.52911 | 771 ft | 121 kts | 165° |
| 2026-04-24 16:47 | 52.37978 | 10.53397 | 768 ft | 125 kts | 165° |
| 2026-04-24 16:47 | 52.37032 | 10.53952 | 765 ft | 161 kts | 165° |
| 2026-04-24 16:47 | 52.35899 | 10.54341 | 808 ft | 168 kts | 179° |
| 2026-04-24 16:48 | 52.34746 | 10.54117 | 860 ft | 167 kts | 200° |
| 2026-04-24 16:48 | 52.33731 | 10.53304 | 771 ft | 163 kts | 215° |
| 2026-04-24 16:48 | 52.32720 | 10.52506 | 621 ft | 162 kts | 195° |
| 2026-04-24 16:48 | 52.31808 | 10.53234 | 479 ft | 157 kts | 105° |
| 2026-04-24 16:49 | 52.31872 | 10.54811 | 311 ft | 125 kts | 80° |
| 2026-04-24 16:49 | 52.31954 | 10.56258 | 313 ft | 142 kts | 81° |
| 2026-04-24 16:49 | 52.32055 | 10.57975 | 742 ft | 142 kts | 81° |
| 2026-04-24 16:49 | 52.32148 | 10.59599 | 1112 ft | 153 kts | 80° |
| 2026-04-24 16:50 | 52.32216 | 10.60803 | 1163 ft | 167 kts | 79° |
| 2026-04-24 16:50 | 52.32365 | 10.63346 | 1248 ft | 168 kts | 80° |
| 2026-04-24 16:50 | 52.32477 | 10.65247 | 1397 ft | 168 kts | 80° |
| 2026-04-24 16:50 | 52.32592 | 10.67148 | 1553 ft | 168 kts | 80° |
| 2026-04-24 16:51 | 52.32707 | 10.69045 | 1624 ft | 168 kts | 80° |
| 2026-04-24 16:51 | 52.32823 | 10.70945 | 1688 ft | 168 kts | 80° |
| 2026-04-24 16:51 | 52.32955 | 10.72842 | 1762 ft | 168 kts | 79° |
| 2026-04-24 16:51 | 52.33098 | 10.74731 | 1974 ft | 167 kts | 79° |
| 2026-04-24 16:52 | 52.33240 | 10.76602 | 2214 ft | 165 kts | 78° |
| 2026-04-24 16:52 | 52.33383 | 10.78469 | 2454 ft | 165 kts | 78° |
| 2026-04-24 16:52 | 52.33527 | 10.80316 | 2687 ft | 163 kts | 79° |
| 2026-04-24 16:52 | 52.33672 | 10.82162 | 2910 ft | 164 kts | 78° |
| 2026-04-24 16:53 | 52.33813 | 10.84015 | 3128 ft | 164 kts | 78° |
| 2026-04-24 16:53 | 52.33952 | 10.85870 | 3227 ft | 166 kts | 78° |
| 2026-04-24 16:53 | 52.34092 | 10.87750 | 3265 ft | 168 kts | 78° |
| 2026-04-24 16:53 | 52.34236 | 10.89644 | 3306 ft | 168 kts | 78° |
| 2026-04-24 16:54 | 52.34380 | 10.91535 | 3342 ft | 168 kts | 78° |
| 2026-04-24 16:54 | 52.34525 | 10.93429 | 3378 ft | 168 kts | 78° |
| 2026-04-24 16:54 | 52.34670 | 10.95321 | 3407 ft | 168 kts | 78° |
| 2026-04-24 16:54 | 52.34815 | 10.97188 | 3440 ft | 168 kts | 78° |
| 2026-04-24 16:55 | 52.34961 | 10.99078 | 3474 ft | 168 kts | 78° |
| 2026-04-24 16:55 | 52.35106 | 11.00973 | 3500 ft | 168 kts | 78° |
| 2026-04-24 16:55 | 52.35251 | 11.02863 | 3527 ft | 168 kts | 78° |
| 2026-04-24 16:55 | 52.35396 | 11.04754 | 3555 ft | 168 kts | 78° |
| 2026-04-24 16:56 | 52.35541 | 11.06650 | 3589 ft | 168 kts | 78° |
| 2026-04-24 16:56 | 52.35681 | 11.08519 | 3690 ft | 166 kts | 78° |
| 2026-04-24 16:56 | 52.35823 | 11.10410 | 3707 ft | 168 kts | 78° |
| 2026-04-24 16:56 | 52.35969 | 11.12302 | 3712 ft | 168 kts | 78° |
| 2026-04-24 16:57 | 52.36114 | 11.14194 | 3708 ft | 168 kts | 78° |
| 2026-04-24 16:57 | 52.36256 | 11.16090 | 3709 ft | 168 kts | 78° |
| 2026-04-24 16:57 | 52.36402 | 11.17981 | 3712 ft | 168 kts | 78° |
| 2026-04-24 16:57 | 52.36548 | 11.19876 | 3708 ft | 168 kts | 78° |
| 2026-04-24 16:58 | 52.36693 | 11.21769 | 3706 ft | 168 kts | 78° |
| 2026-04-24 16:58 | 52.36839 | 11.23662 | 3704 ft | 168 kts | 78° |
| 2026-04-24 16:58 | 52.36984 | 11.25555 | 3701 ft | 168 kts | 78° |
| 2026-04-24 16:58 | 52.37128 | 11.27448 | 3703 ft | 168 kts | 78° |
| 2026-04-24 16:59 | 52.37274 | 11.29342 | 3695 ft | 167 kts | 78° |
| 2026-04-24 16:59 | 52.37421 | 11.31235 | 3700 ft | 168 kts | 78° |
| 2026-04-24 16:59 | 52.37711 | 11.35024 | 3695 ft | 168 kts | 78° |
| 2026-04-24 17:00 | 52.37856 | 11.36918 | 3697 ft | 168 kts | 78° |
| 2026-04-24 17:00 | 52.38148 | 11.40704 | 3694 ft | 168 kts | 78° |
| 2026-04-24 17:00 | 52.38298 | 11.42596 | 3699 ft | 168 kts | 78° |
| 2026-04-24 17:01 | 52.38595 | 11.46381 | 3693 ft | 168 kts | 78° |
| 2026-04-24 17:01 | 52.38742 | 11.48275 | 3699 ft | 168 kts | 78° |
| 2026-04-24 17:02 | 52.39038 | 11.52061 | 3702 ft | 168 kts | 78° |
| 2026-04-24 17:02 | 52.39185 | 11.53955 | 3698 ft | 168 kts | 78° |
| 2026-04-24 17:02 | 52.39331 | 11.55852 | 3696 ft | 168 kts | 78° |
| 2026-04-24 17:02 | 52.39478 | 11.57746 | 3689 ft | 168 kts | 78° |
| 2026-04-24 17:03 | 52.39769 | 11.61537 | 3698 ft | 168 kts | 78° |
| 2026-04-24 17:03 | 52.39917 | 11.63429 | 3691 ft | 168 kts | 78° |
| 2026-04-24 17:03 | 52.40062 | 11.65298 | 3688 ft | 168 kts | 78° |
| 2026-04-24 17:04 | 52.40208 | 11.67193 | 3692 ft | 168 kts | 78° |
| 2026-04-24 17:04 | 52.40500 | 11.70983 | 3677 ft | 168 kts | 78° |
| 2026-04-24 17:04 | 52.40646 | 11.72879 | 3688 ft | 168 kts | 78° |
| 2026-04-24 17:05 | 52.40793 | 11.74775 | 3694 ft | 168 kts | 78° |
| 2026-04-24 17:05 | 52.40941 | 11.76670 | 3678 ft | 168 kts | 78° |
| 2026-04-24 17:05 | 52.41230 | 11.80464 | 3687 ft | 168 kts | 78° |
| 2026-04-24 17:06 | 52.41379 | 11.82361 | 3685 ft | 168 kts | 78° |
| 2026-04-24 17:06 | 52.41674 | 11.86148 | 3683 ft | 168 kts | 78° |
| 2026-04-24 17:06 | 52.41825 | 11.88043 | 3685 ft | 167 kts | 78° |
| 2026-04-24 17:07 | 52.41925 | 11.89296 | 3683 ft | 168 kts | 78° |
| 2026-04-24 17:07 | 52.42118 | 11.91774 | 3943 ft | 158 kts | 78° |
| 2026-04-24 17:07 | 52.42394 | 11.95405 | 4079 ft | 165 kts | 78° |
| 2026-04-24 17:08 | 52.42692 | 11.99188 | 4071 ft | 168 kts | 78° |
| 2026-04-24 17:08 | 52.42839 | 12.01081 | 4074 ft | 168 kts | 78° |
| 2026-04-24 17:08 | 52.42989 | 12.02978 | 4076 ft | 168 kts | 78° |
| 2026-04-24 17:09 | 52.43287 | 12.06768 | 4072 ft | 168 kts | 78° |
| 2026-04-24 17:09 | 52.43586 | 12.10558 | 4075 ft | 168 kts | 78° |
| 2026-04-24 17:10 | 52.43735 | 12.12452 | 4073 ft | 168 kts | 78° |
| 2026-04-24 17:10 | 52.44183 | 12.18138 | 4067 ft | 168 kts | 78° |
| 2026-04-24 17:11 | 52.44626 | 12.23828 | 4068 ft | 168 kts | 78° |
| 2026-04-24 17:12 | 52.45369 | 12.33286 | 4068 ft | 168 kts | 78° |